sensor_id;sensor_type;location;lat;lon;timestamp;pressure;altitude;pressure_sealevel;temperature
76898;BMP180;65856;52.178;21.176;2023-07-20T00:01:07;99838.80;;;19.10
76898;BMP180;65856;52.178;21.176;2023-07-20T00:03:32;99831.80;;;19.00
76898;BMP180;65856;52.178;21.176;2023-07-20T00:05:58;99823.40;;;18.90
76898;BMP180;65856;52.178;21.176;2023-07-20T00:08:24;99823.60;;;18.90
76898;BMP180;65856;52.178;21.176;2023-07-20T00:10:49;99821.20;;;18.80
76898;BMP180;65856;52.178;21.176;2023-07-20T00:13:15;99814.00;;;18.80
76898;BMP180;65856;52.178;21.176;2023-07-20T00:15:41;99817.00;;;18.80
76898;BMP180;65856;52.178;21.176;2023-07-20T00:18:07;99810.80;;;18.70
76898;BMP180;65856;52.178;21.176;2023-07-20T00:20:33;99801.80;;;18.70
76898;BMP180;65856;52.178;21.176;2023-07-20T00:22:58;99797.40;;;18.60
76898;BMP180;65856;52.178;21.176;2023-07-20T00:25:24;99798.60;;;18.50
76898;BMP180;65856;52.178;21.176;2023-07-20T00:27:50;99797.00;;;18.50
76898;BMP180;65856;52.178;21.176;2023-07-20T00:30:16;99800.80;;;18.40
76898;BMP180;65856;52.178;21.176;2023-07-20T00:32:43;99799.20;;;18.40
76898;BMP180;65856;52.178;21.176;2023-07-20T00:35:09;99800.60;;;18.40
76898;BMP180;65856;52.178;21.176;2023-07-20T00:37:35;99803.80;;;18.40
76898;BMP180;65856;52.178;21.176;2023-07-20T00:40:00;99800.00;;;18.40
76898;BMP180;65856;52.178;21.176;2023-07-20T00:42:26;99798.00;;;18.30
76898;BMP180;65856;52.178;21.176;2023-07-20T00:44:52;99802.80;;;18.30
76898;BMP180;65856;52.178;21.176;2023-07-20T00:47:17;99804.80;;;18.26
76898;BMP180;65856;52.178;21.176;2023-07-20T00:49:43;99814.80;;;18.20
76898;BMP180;65856;52.178;21.176;2023-07-20T00:52:10;99814.80;;;18.20
76898;BMP180;65856;52.178;21.176;2023-07-20T00:54:40;99818.20;;;18.10
76898;BMP180;65856;52.178;21.176;2023-07-20T00:57:07;99813.40;;;18.10
76898;BMP180;65856;52.178;21.176;2023-07-20T00:59:36;99816.80;;;18.10
76898;BMP180;65856;52.178;21.176;2023-07-20T01:02:02;99806.20;;;18.10
76898;BMP180;65856;52.178;21.176;2023-07-20T01:04:28;99807.60;;;18.10
76898;BMP180;65856;52.178;21.176;2023-07-20T01:07:13;99803.60;;;18.10
76898;BMP180;65856;52.178;21.176;2023-07-20T01:12:47;99807.20;;;18.10
76898;BMP180;65856;52.178;21.176;2023-07-20T01:15:14;99811.00;;;18.10
76898;BMP180;65856;52.178;21.176;2023-07-20T01:17:39;99807.40;;;18.10
76898;BMP180;65856;52.178;21.176;2023-07-20T01:20:08;99809.00;;;18.10
76898;BMP180;65856;52.178;21.176;2023-07-20T01:26:27;99809.20;;;18.04
76898;BMP180;65856;52.178;21.176;2023-07-20T01:29:41;99808.40;;;18.10
76898;BMP180;65856;52.178;21.176;2023-07-20T01:32:24;99805.60;;;18.10
76898;BMP180;65856;52.178;21.176;2023-07-20T01:34:52;99801.00;;;18.00
76898;BMP180;65856;52.178;21.176;2023-07-20T01:37:21;99793.00;;;18.00
76898;BMP180;65856;52.178;21.176;2023-07-20T01:39:52;99789.00;;;18.02
76898;BMP180;65856;52.178;21.176;2023-07-20T01:42:22;99793.00;;;18.00
76898;BMP180;65856;52.178;21.176;2023-07-20T01:44:51;99799.00;;;18.00
76898;BMP180;65856;52.178;21.176;2023-07-20T01:47:18;99804.00;;;18.00
76898;BMP180;65856;52.178;21.176;2023-07-20T01:49:43;99819.00;;;18.00
76898;BMP180;65856;52.178;21.176;2023-07-20T01:52:08;99821.40;;;17.90
76898;BMP180;65856;52.178;21.176;2023-07-20T01:54:34;99831.80;;;17.88
76898;BMP180;65856;52.178;21.176;2023-07-20T01:56:59;99836.20;;;17.80
76898;BMP180;65856;52.178;21.176;2023-07-20T01:59:25;99834.40;;;17.80
76898;BMP180;65856;52.178;21.176;2023-07-20T02:01:51;99835.00;;;17.74
76898;BMP180;65856;52.178;21.176;2023-07-20T02:04:17;99832.60;;;17.80
76898;BMP180;65856;52.178;21.176;2023-07-20T02:06:43;99830.20;;;17.74
76898;BMP180;65856;52.178;21.176;2023-07-20T02:09:08;99838.60;;;17.72
76898;BMP180;65856;52.178;21.176;2023-07-20T02:11:34;99841.60;;;17.74
76898;BMP180;65856;52.178;21.176;2023-07-20T02:13:59;99845.00;;;17.70
76898;BMP180;65856;52.178;21.176;2023-07-20T02:16:25;99840.00;;;17.70
76898;BMP180;65856;52.178;21.176;2023-07-20T02:18:50;99841.80;;;17.72
76898;BMP180;65856;52.178;21.176;2023-07-20T02:21:16;99841.80;;;17.70
76898;BMP180;65856;52.178;21.176;2023-07-20T02:23:41;99835.20;;;17.70
76898;BMP180;65856;52.178;21.176;2023-07-20T02:26:07;99827.00;;;17.80
76898;BMP180;65856;52.178;21.176;2023-07-20T02:28:32;99821.40;;;17.80
76898;BMP180;65856;52.178;21.176;2023-07-20T02:30:58;99818.00;;;17.80
76898;BMP180;65856;52.178;21.176;2023-07-20T02:33:23;99818.60;;;17.70
76898;BMP180;65856;52.178;21.176;2023-07-20T02:35:49;99821.80;;;17.64
76898;BMP180;65856;52.178;21.176;2023-07-20T02:38:14;99818.20;;;17.60
76898;BMP180;65856;52.178;21.176;2023-07-20T02:40:40;99808.40;;;17.60
76898;BMP180;65856;52.178;21.176;2023-07-20T02:43:05;99804.60;;;17.70
76898;BMP180;65856;52.178;21.176;2023-07-20T02:45:31;99804.00;;;17.74
76898;BMP180;65856;52.178;21.176;2023-07-20T02:47:56;99803.40;;;17.80
76898;BMP180;65856;52.178;21.176;2023-07-20T02:50:22;99804.40;;;17.84
76898;BMP180;65856;52.178;21.176;2023-07-20T02:52:47;99807.20;;;17.90
76898;BMP180;65856;52.178;21.176;2023-07-20T02:55:13;99804.60;;;17.80
76898;BMP180;65856;52.178;21.176;2023-07-20T02:57:38;99802.80;;;17.80
76898;BMP180;65856;52.178;21.176;2023-07-20T03:00:05;99802.00;;;17.80
76898;BMP180;65856;52.178;21.176;2023-07-20T03:02:31;99800.00;;;17.80
76898;BMP180;65856;52.178;21.176;2023-07-20T03:04:57;99802.20;;;17.90
76898;BMP180;65856;52.178;21.176;2023-07-20T03:07:28;99801.00;;;17.90
76898;BMP180;65856;52.178;21.176;2023-07-20T03:09:54;99802.00;;;17.80
76898;BMP180;65856;52.178;21.176;2023-07-20T03:12:20;99811.00;;;17.70
76898;BMP180;65856;52.178;21.176;2023-07-20T03:14:47;99815.80;;;17.70
76898;BMP180;65856;52.178;21.176;2023-07-20T03:17:12;99818.60;;;17.60
76898;BMP180;65856;52.178;21.176;2023-07-20T03:19:37;99814.80;;;17.70
76898;BMP180;65856;52.178;21.176;2023-07-20T03:22:03;99818.20;;;17.70
76898;BMP180;65856;52.178;21.176;2023-07-20T03:24:29;99820.80;;;17.70
76898;BMP180;65856;52.178;21.176;2023-07-20T03:26:54;99820.20;;;17.60
76898;BMP180;65856;52.178;21.176;2023-07-20T03:29:20;99823.40;;;17.62
76898;BMP180;65856;52.178;21.176;2023-07-20T03:31:45;99823.60;;;17.70
76898;BMP180;65856;52.178;21.176;2023-07-20T03:34:11;99829.80;;;17.70
76898;BMP180;65856;52.178;21.176;2023-07-20T03:36:36;99829.60;;;17.70
76898;BMP180;65856;52.178;21.176;2023-07-20T03:39:02;99828.40;;;17.70
76898;BMP180;65856;52.178;21.176;2023-07-20T03:41:28;99832.40;;;17.78
76898;BMP180;65856;52.178;21.176;2023-07-20T03:43:53;99836.00;;;17.80
76898;BMP180;65856;52.178;21.176;2023-07-20T03:46:19;99836.80;;;17.80
76898;BMP180;65856;52.178;21.176;2023-07-20T03:48:45;99840.80;;;17.80
76898;BMP180;65856;52.178;21.176;2023-07-20T03:51:10;99843.40;;;17.80
76898;BMP180;65856;52.178;21.176;2023-07-20T03:53:36;99847.80;;;17.90
76898;BMP180;65856;52.178;21.176;2023-07-20T03:56:01;99852.00;;;17.82
76898;BMP180;65856;52.178;21.176;2023-07-20T03:58:27;99860.80;;;17.90
76898;BMP180;65856;52.178;21.176;2023-07-20T04:00:52;99869.80;;;17.90
76898;BMP180;65856;52.178;21.176;2023-07-20T04:03:19;99884.20;;;17.90
76898;BMP180;65856;52.178;21.176;2023-07-20T04:05:46;99896.00;;;17.90
76898;BMP180;65856;52.178;21.176;2023-07-20T04:08:12;99905.20;;;17.90
76898;BMP180;65856;52.178;21.176;2023-07-20T04:10:38;99908.80;;;17.84
76898;BMP180;65856;52.178;21.176;2023-07-20T04:13:04;99911.20;;;17.80
76898;BMP180;65856;52.178;21.176;2023-07-20T04:15:31;99908.40;;;17.88
76898;BMP180;65856;52.178;21.176;2023-07-20T04:17:56;99908.40;;;17.90
76898;BMP180;65856;52.178;21.176;2023-07-20T04:20:23;99908.60;;;17.90
76898;BMP180;65856;52.178;21.176;2023-07-20T04:22:49;99909.20;;;17.90
76898;BMP180;65856;52.178;21.176;2023-07-20T04:25:17;99908.20;;;18.00
76898;BMP180;65856;52.178;21.176;2023-07-20T04:27:43;99903.40;;;18.00
76898;BMP180;65856;52.178;21.176;2023-07-20T04:30:10;99909.60;;;18.10
76898;BMP180;65856;52.178;21.176;2023-07-20T04:32:37;99912.20;;;18.00
76898;BMP180;65856;52.178;21.176;2023-07-20T04:35:07;99918.40;;;17.90
76898;BMP180;65856;52.178;21.176;2023-07-20T04:37:35;99929.00;;;17.90
76898;BMP180;65856;52.178;21.176;2023-07-20T04:40:01;99936.60;;;18.00
76898;BMP180;65856;52.178;21.176;2023-07-20T04:42:26;99949.60;;;18.00
76898;BMP180;65856;52.178;21.176;2023-07-20T04:44:52;99949.00;;;18.10
76898;BMP180;65856;52.178;21.176;2023-07-20T04:47:17;99954.60;;;18.10
76898;BMP180;65856;52.178;21.176;2023-07-20T04:49:43;99947.20;;;18.10
76898;BMP180;65856;52.178;21.176;2023-07-20T04:52:08;99948.20;;;18.10
76898;BMP180;65856;52.178;21.176;2023-07-20T04:54:34;99946.00;;;18.00
76898;BMP180;65856;52.178;21.176;2023-07-20T04:56:59;99945.40;;;18.02
76898;BMP180;65856;52.178;21.176;2023-07-20T04:59:25;99947.80;;;18.10
76898;BMP180;65856;52.178;21.176;2023-07-20T05:01:50;99948.40;;;18.10
76898;BMP180;65856;52.178;21.176;2023-07-20T05:04:15;99951.80;;;18.16
76898;BMP180;65856;52.178;21.176;2023-07-20T05:06:41;99956.60;;;18.20
76898;BMP180;65856;52.178;21.176;2023-07-20T05:09:06;99963.80;;;18.30
76898;BMP180;65856;52.178;21.176;2023-07-20T05:11:33;99971.20;;;18.40
76898;BMP180;65856;52.178;21.176;2023-07-20T05:13:58;99971.80;;;18.46
76898;BMP180;65856;52.178;21.176;2023-07-20T05:16:24;99975.00;;;18.50
76898;BMP180;65856;52.178;21.176;2023-07-20T05:18:49;99965.00;;;18.52
76898;BMP180;65856;52.178;21.176;2023-07-20T05:21:15;99966.80;;;18.60
76898;BMP180;65856;52.178;21.176;2023-07-20T05:23:40;99965.00;;;18.70
76898;BMP180;65856;52.178;21.176;2023-07-20T05:26:06;99968.00;;;18.80
76898;BMP180;65856;52.178;21.176;2023-07-20T05:28:31;99968.40;;;18.86
76898;BMP180;65856;52.178;21.176;2023-07-20T05:30:57;99974.60;;;18.90
76898;BMP180;65856;52.178;21.176;2023-07-20T05:33:24;99976.80;;;18.92
76898;BMP180;65856;52.178;21.176;2023-07-20T05:35:50;99971.00;;;19.00
76898;BMP180;65856;52.178;21.176;2023-07-20T05:38:16;99969.40;;;19.10
76898;BMP180;65856;52.178;21.176;2023-07-20T05:40:42;99966.00;;;19.20
76898;BMP180;65856;52.178;21.176;2023-07-20T05:43:09;99961.20;;;19.22
76898;BMP180;65856;52.178;21.176;2023-07-20T05:45:35;99955.00;;;19.30
76898;BMP180;65856;52.178;21.176;2023-07-20T05:48:01;99953.80;;;19.40
76898;BMP180;65856;52.178;21.176;2023-07-20T05:50:26;99957.60;;;19.50
76898;BMP180;65856;52.178;21.176;2023-07-20T05:52:53;99953.60;;;19.50
76898;BMP180;65856;52.178;21.176;2023-07-20T05:55:20;99956.00;;;19.60
76898;BMP180;65856;52.178;21.176;2023-07-20T05:57:45;99960.00;;;19.60
76898;BMP180;65856;52.178;21.176;2023-07-20T06:00:13;99957.60;;;19.68
76898;BMP180;65856;52.178;21.176;2023-07-20T06:02:39;99960.00;;;19.70
76898;BMP180;65856;52.178;21.176;2023-07-20T06:05:06;99952.80;;;19.80
76898;BMP180;65856;52.178;21.176;2023-07-20T06:07:37;99949.00;;;19.82
76898;BMP180;65856;52.178;21.176;2023-07-20T06:10:03;99954.00;;;19.90
76898;BMP180;65856;52.178;21.176;2023-07-20T06:12:29;99950.00;;;19.90
76898;BMP180;65856;52.178;21.176;2023-07-20T06:14:54;99946.80;;;19.90
76898;BMP180;65856;52.178;21.176;2023-07-20T06:17:20;99942.80;;;19.90
76898;BMP180;65856;52.178;21.176;2023-07-20T06:19:46;99945.00;;;19.90
76898;BMP180;65856;52.178;21.176;2023-07-20T06:22:11;99942.60;;;19.90
76898;BMP180;65856;52.178;21.176;2023-07-20T06:24:37;99940.40;;;19.90
76898;BMP180;65856;52.178;21.176;2023-07-20T06:27:02;99933.60;;;20.00
76898;BMP180;65856;52.178;21.176;2023-07-20T06:29:28;99929.60;;;20.04
76898;BMP180;65856;52.178;21.176;2023-07-20T06:31:53;99933.80;;;20.10
76898;BMP180;65856;52.178;21.176;2023-07-20T06:34:19;99923.20;;;20.14
76898;BMP180;65856;52.178;21.176;2023-07-20T06:36:44;99925.80;;;20.20
76898;BMP180;65856;52.178;21.176;2023-07-20T06:39:10;99925.20;;;20.26
76898;BMP180;65856;52.178;21.176;2023-07-20T06:41:35;99927.80;;;20.30
76898;BMP180;65856;52.178;21.176;2023-07-20T06:44:01;99919.20;;;20.30
76898;BMP180;65856;52.178;21.176;2023-07-20T06:46:28;99915.40;;;20.30
76898;BMP180;65856;52.178;21.176;2023-07-20T06:48:54;99916.60;;;20.40
76898;BMP180;65856;52.178;21.176;2023-07-20T06:51:20;99921.00;;;20.40
76898;BMP180;65856;52.178;21.176;2023-07-20T06:53:45;99919.40;;;20.40
76898;BMP180;65856;52.178;21.176;2023-07-20T06:56:11;99923.00;;;20.40
76898;BMP180;65856;52.178;21.176;2023-07-20T06:58:36;99918.00;;;20.40
76898;BMP180;65856;52.178;21.176;2023-07-20T07:01:06;99918.40;;;20.40
76898;BMP180;65856;52.178;21.176;2023-07-20T07:03:32;99918.00;;;20.40
76898;BMP180;65856;52.178;21.176;2023-07-20T07:05:58;99914.00;;;20.40
76898;BMP180;65856;52.178;21.176;2023-07-20T07:08:24;99918.00;;;20.32
76898;BMP180;65856;52.178;21.176;2023-07-20T07:10:50;99917.20;;;20.40
76898;BMP180;65856;52.178;21.176;2023-07-20T07:13:15;99914.60;;;20.30
76898;BMP180;65856;52.178;21.176;2023-07-20T07:15:42;99920.40;;;20.10
76898;BMP180;65856;52.178;21.176;2023-07-20T07:18:08;99926.00;;;20.08
76898;BMP180;65856;52.178;21.176;2023-07-20T07:20:33;99924.40;;;20.00
76898;BMP180;65856;52.178;21.176;2023-07-20T07:22:59;99933.80;;;20.00
76898;BMP180;65856;52.178;21.176;2023-07-20T07:25:25;99932.60;;;20.00
76898;BMP180;65856;52.178;21.176;2023-07-20T07:27:53;99933.40;;;20.00
76898;BMP180;65856;52.178;21.176;2023-07-20T07:30:19;99933.00;;;19.90
76898;BMP180;65856;52.178;21.176;2023-07-20T07:32:45;99930.60;;;19.92
76898;BMP180;65856;52.178;21.176;2023-07-20T07:35:11;99933.00;;;20.00
76898;BMP180;65856;52.178;21.176;2023-07-20T07:37:37;99937.40;;;20.10
76898;BMP180;65856;52.178;21.176;2023-07-20T07:40:04;99944.80;;;20.16
76898;BMP180;65856;52.178;21.176;2023-07-20T07:42:31;99947.40;;;20.20
76898;BMP180;65856;52.178;21.176;2023-07-20T07:44:57;99950.00;;;20.20
76898;BMP180;65856;52.178;21.176;2023-07-20T07:47:22;99949.80;;;20.20
76898;BMP180;65856;52.178;21.176;2023-07-20T07:49:48;99951.40;;;20.20
76898;BMP180;65856;52.178;21.176;2023-07-20T07:52:14;99954.20;;;20.20
76898;BMP180;65856;52.178;21.176;2023-07-20T07:54:40;99958.20;;;20.20
76898;BMP180;65856;52.178;21.176;2023-07-20T07:57:05;99959.60;;;20.20
76898;BMP180;65856;52.178;21.176;2023-07-20T07:59:31;99958.20;;;20.10
76898;BMP180;65856;52.178;21.176;2023-07-20T08:02:01;99961.00;;;20.10
76898;BMP180;65856;52.178;21.176;2023-07-20T08:04:27;99965.00;;;20.10
76898;BMP180;65856;52.178;21.176;2023-07-20T08:06:53;99980.60;;;20.08
76898;BMP180;65856;52.178;21.176;2023-07-20T08:09:18;99989.40;;;20.08
76898;BMP180;65856;52.178;21.176;2023-07-20T08:11:44;99988.40;;;20.02
76898;BMP180;65856;52.178;21.176;2023-07-20T08:14:09;99989.60;;;20.00
76898;BMP180;65856;52.178;21.176;2023-07-20T08:16:35;99987.40;;;20.00
76898;BMP180;65856;52.178;21.176;2023-07-20T08:19:00;99993.20;;;19.90
76898;BMP180;65856;52.178;21.176;2023-07-20T08:21:25;99994.00;;;19.90
76898;BMP180;65856;52.178;21.176;2023-07-20T08:23:51;99997.80;;;19.90
76898;BMP180;65856;52.178;21.176;2023-07-20T08:26:16;100006.40;;;19.80
76898;BMP180;65856;52.178;21.176;2023-07-20T08:28:44;100009.00;;;19.80
76898;BMP180;65856;52.178;21.176;2023-07-20T08:31:11;100007.20;;;19.70
76898;BMP180;65856;52.178;21.176;2023-07-20T08:33:36;100006.40;;;19.72
76898;BMP180;65856;52.178;21.176;2023-07-20T08:36:02;100008.80;;;19.70
76898;BMP180;65856;52.178;21.176;2023-07-20T08:38:28;100006.60;;;19.70
76898;BMP180;65856;52.178;21.176;2023-07-20T08:40:54;100009.20;;;19.70
76898;BMP180;65856;52.178;21.176;2023-07-20T08:43:23;100008.60;;;19.70
76898;BMP180;65856;52.178;21.176;2023-07-20T08:45:54;100010.60;;;19.70
76898;BMP180;65856;52.178;21.176;2023-07-20T08:48:24;100012.40;;;19.70
76898;BMP180;65856;52.178;21.176;2023-07-20T08:50:52;100019.20;;;19.60
76898;BMP180;65856;52.178;21.176;2023-07-20T08:53:20;100021.20;;;19.50
76898;BMP180;65856;52.178;21.176;2023-07-20T08:55:50;100019.80;;;19.58
76898;BMP180;65856;52.178;21.176;2023-07-20T08:58:17;100022.00;;;19.60
76898;BMP180;65856;52.178;21.176;2023-07-20T09:00:44;100023.60;;;19.50
76898;BMP180;65856;52.178;21.176;2023-07-20T09:03:11;100028.40;;;19.50
76898;BMP180;65856;52.178;21.176;2023-07-20T09:05:37;100027.40;;;19.50
76898;BMP180;65856;52.178;21.176;2023-07-20T09:08:04;100035.40;;;19.54
76898;BMP180;65856;52.178;21.176;2023-07-20T09:10:30;100035.40;;;19.60
76898;BMP180;65856;52.178;21.176;2023-07-20T09:12:56;100032.00;;;19.60
76898;BMP180;65856;52.178;21.176;2023-07-20T09:15:22;100036.20;;;19.60
76898;BMP180;65856;52.178;21.176;2023-07-20T09:17:50;100033.40;;;19.60
76898;BMP180;65856;52.178;21.176;2023-07-20T09:20:18;100036.80;;;19.60
76898;BMP180;65856;52.178;21.176;2023-07-20T09:22:44;100035.80;;;19.60
76898;BMP180;65856;52.178;21.176;2023-07-20T09:25:16;100037.00;;;19.66
76898;BMP180;65856;52.178;21.176;2023-07-20T09:27:47;100043.20;;;19.70
76898;BMP180;65856;52.178;21.176;2023-07-20T09:30:15;100048.00;;;19.70
76898;BMP180;65856;52.178;21.176;2023-07-20T09:32:49;100047.20;;;19.70
76898;BMP180;65856;52.178;21.176;2023-07-20T09:35:18;100048.40;;;19.76
76898;BMP180;65856;52.178;21.176;2023-07-20T09:38:00;100048.60;;;19.70
76898;BMP180;65856;52.178;21.176;2023-07-20T09:40:27;100051.40;;;19.70
76898;BMP180;65856;52.178;21.176;2023-07-20T09:42:54;100047.00;;;19.70
76898;BMP180;65856;52.178;21.176;2023-07-20T09:45:39;100047.00;;;19.80
76898;BMP180;65856;52.178;21.176;2023-07-20T09:48:08;100046.80;;;19.90
76898;BMP180;65856;52.178;21.176;2023-07-20T09:50:49;100040.60;;;19.92
76898;BMP180;65856;52.178;21.176;2023-07-20T09:53:17;100039.80;;;20.00
76898;BMP180;65856;52.178;21.176;2023-07-20T09:55:45;100040.80;;;20.10
76898;BMP180;65856;52.178;21.176;2023-07-20T09:58:11;100047.40;;;20.20
76898;BMP180;65856;52.178;21.176;2023-07-20T10:00:39;100050.20;;;20.40
76898;BMP180;65856;52.178;21.176;2023-07-20T10:03:05;100049.80;;;20.50
76898;BMP180;65856;52.178;21.176;2023-07-20T10:05:34;100050.40;;;20.50
76898;BMP180;65856;52.178;21.176;2023-07-20T10:08:03;100041.40;;;20.60
76898;BMP180;65856;52.178;21.176;2023-07-20T10:10:35;100041.00;;;20.80
76898;BMP180;65856;52.178;21.176;2023-07-20T10:13:01;100043.80;;;21.00
76898;BMP180;65856;52.178;21.176;2023-07-20T10:15:40;100050.60;;;21.10
76898;BMP180;65856;52.178;21.176;2023-07-20T10:18:25;100049.40;;;21.10
76898;BMP180;65856;52.178;21.176;2023-07-20T10:20:56;100043.20;;;21.02
76898;BMP180;65856;52.178;21.176;2023-07-20T10:23:22;100039.20;;;20.90
76898;BMP180;65856;52.178;21.176;2023-07-20T10:25:50;100038.80;;;20.90
76898;BMP180;65856;52.178;21.176;2023-07-20T10:28:16;100037.00;;;20.80
76898;BMP180;65856;52.178;21.176;2023-07-20T10:30:42;100034.00;;;20.90
76898;BMP180;65856;52.178;21.176;2023-07-20T10:33:08;100029.20;;;21.00
76898;BMP180;65856;52.178;21.176;2023-07-20T10:36:03;100034.80;;;21.10
76898;BMP180;65856;52.178;21.176;2023-07-20T10:38:55;100033.80;;;21.22
76898;BMP180;65856;52.178;21.176;2023-07-20T10:41:37;100030.80;;;21.30
76898;BMP180;65856;52.178;21.176;2023-07-20T10:44:08;100032.40;;;21.34
76898;BMP180;65856;52.178;21.176;2023-07-20T10:46:43;100031.00;;;21.32
76898;BMP180;65856;52.178;21.176;2023-07-20T10:49:14;100023.60;;;21.40
76898;BMP180;65856;52.178;21.176;2023-07-20T10:51:48;100030.00;;;21.32
76898;BMP180;65856;52.178;21.176;2023-07-20T10:56:44;100034.60;;;21.30
76898;BMP180;65856;52.178;21.176;2023-07-20T11:01:55;100034.80;;;21.40
76898;BMP180;65856;52.178;21.176;2023-07-20T11:04:46;100032.00;;;21.30
76898;BMP180;65856;52.178;21.176;2023-07-20T11:07:17;100034.60;;;21.20
76898;BMP180;65856;52.178;21.176;2023-07-20T11:10:15;100035.40;;;21.30
76898;BMP180;65856;52.178;21.176;2023-07-20T11:12:41;100036.00;;;21.40
76898;BMP180;65856;52.178;21.176;2023-07-20T11:15:06;100034.20;;;21.60
76898;BMP180;65856;52.178;21.176;2023-07-20T11:17:33;100032.40;;;21.78
76898;BMP180;65856;52.178;21.176;2023-07-20T11:20:01;100022.60;;;21.90
76898;BMP180;65856;52.178;21.176;2023-07-20T11:22:30;100026.00;;;22.00
76898;BMP180;65856;52.178;21.176;2023-07-20T11:24:57;100021.60;;;22.00
76898;BMP180;65856;52.178;21.176;2023-07-20T11:27:24;100014.80;;;22.10
76898;BMP180;65856;52.178;21.176;2023-07-20T11:29:49;100009.60;;;22.10
76898;BMP180;65856;52.178;21.176;2023-07-20T11:32:22;100007.40;;;22.10
76898;BMP180;65856;52.178;21.176;2023-07-20T11:34:49;100013.80;;;22.12
76898;BMP180;65856;52.178;21.176;2023-07-20T11:37:16;100013.80;;;22.20
76898;BMP180;65856;52.178;21.176;2023-07-20T11:39:43;100009.60;;;22.30
76898;BMP180;65856;52.178;21.176;2023-07-20T11:42:09;100011.80;;;22.30
76898;BMP180;65856;52.178;21.176;2023-07-20T11:44:35;100008.00;;;22.20
76898;BMP180;65856;52.178;21.176;2023-07-20T11:49:44;100006.80;;;22.30
76898;BMP180;65856;52.178;21.176;2023-07-20T11:52:16;100000.40;;;22.40
76898;BMP180;65856;52.178;21.176;2023-07-20T11:54:43;99999.40;;;22.50
76898;BMP180;65856;52.178;21.176;2023-07-20T11:57:20;99994.60;;;22.60
76898;BMP180;65856;52.178;21.176;2023-07-20T11:59:57;99998.60;;;22.70
76898;BMP180;65856;52.178;21.176;2023-07-20T12:02:27;100003.80;;;22.70
76898;BMP180;65856;52.178;21.176;2023-07-20T12:04:57;100003.20;;;22.80
76898;BMP180;65856;52.178;21.176;2023-07-20T12:07:27;99995.80;;;22.80
76898;BMP180;65856;52.178;21.176;2023-07-20T12:10:26;100000.00;;;22.90
76898;BMP180;65856;52.178;21.176;2023-07-20T12:13:03;99994.80;;;22.90
76898;BMP180;65856;52.178;21.176;2023-07-20T12:15:29;99996.60;;;22.90
76898;BMP180;65856;52.178;21.176;2023-07-20T12:18:02;99997.20;;;23.00
76898;BMP180;65856;52.178;21.176;2023-07-20T12:20:33;99991.80;;;23.10
76898;BMP180;65856;52.178;21.176;2023-07-20T12:23:10;99988.00;;;23.12
76898;BMP180;65856;52.178;21.176;2023-07-20T12:25:44;99994.40;;;23.20
76898;BMP180;65856;52.178;21.176;2023-07-20T12:28:19;99988.20;;;23.26
76898;BMP180;65856;52.178;21.176;2023-07-20T12:30:46;99990.20;;;23.30
76898;BMP180;65856;52.178;21.176;2023-07-20T12:33:13;99994.20;;;23.40
76898;BMP180;65856;52.178;21.176;2023-07-20T12:35:42;99993.60;;;23.40
76898;BMP180;65856;52.178;21.176;2023-07-20T12:38:09;99987.60;;;23.40
76898;BMP180;65856;52.178;21.176;2023-07-20T12:40:34;99992.00;;;23.30
76898;BMP180;65856;52.178;21.176;2023-07-20T12:43:01;99991.60;;;23.40
76898;BMP180;65856;52.178;21.176;2023-07-20T12:45:27;99996.40;;;23.56
76898;BMP180;65856;52.178;21.176;2023-07-20T12:47:52;99995.60;;;23.60
76898;BMP180;65856;52.178;21.176;2023-07-20T12:50:18;99997.20;;;23.50
76898;BMP180;65856;52.178;21.176;2023-07-20T12:52:43;99993.40;;;23.50
76898;BMP180;65856;52.178;21.176;2023-07-20T12:55:09;99988.60;;;23.40
76898;BMP180;65856;52.178;21.176;2023-07-20T12:57:37;99985.00;;;23.40
76898;BMP180;65856;52.178;21.176;2023-07-20T13:00:06;99977.80;;;23.40
76898;BMP180;65856;52.178;21.176;2023-07-20T13:02:36;99972.40;;;23.50
76898;BMP180;65856;52.178;21.176;2023-07-20T13:05:02;99967.80;;;23.50
76898;BMP180;65856;52.178;21.176;2023-07-20T13:07:33;99965.60;;;23.60
76898;BMP180;65856;52.178;21.176;2023-07-20T13:10:01;99963.60;;;23.70
76898;BMP180;65856;52.178;21.176;2023-07-20T13:12:31;99951.00;;;23.70
76898;BMP180;65856;52.178;21.176;2023-07-20T13:15:04;99952.80;;;23.70
76898;BMP180;65856;52.178;21.176;2023-07-20T13:17:34;99951.40;;;23.80
76898;BMP180;65856;52.178;21.176;2023-07-20T13:20:02;99953.20;;;23.86
76898;BMP180;65856;52.178;21.176;2023-07-20T13:22:32;99950.00;;;23.90
76898;BMP180;65856;52.178;21.176;2023-07-20T13:24:58;99949.80;;;23.80
76898;BMP180;65856;52.178;21.176;2023-07-20T13:27:24;99947.60;;;23.80
76898;BMP180;65856;52.178;21.176;2023-07-20T13:29:51;99936.00;;;23.80
76898;BMP180;65856;52.178;21.176;2023-07-20T13:32:17;99927.60;;;23.80
76898;BMP180;65856;52.178;21.176;2023-07-20T13:34:44;99926.80;;;23.80
76898;BMP180;65856;52.178;21.176;2023-07-20T13:37:11;99919.40;;;23.80
76898;BMP180;65856;52.178;21.176;2023-07-20T13:39:37;99928.40;;;23.80
76898;BMP180;65856;52.178;21.176;2023-07-20T13:42:05;99939.60;;;23.80
76898;BMP180;65856;52.178;21.176;2023-07-20T13:44:34;99935.40;;;23.80
76898;BMP180;65856;52.178;21.176;2023-07-20T13:47:01;99936.80;;;23.80
76898;BMP180;65856;52.178;21.176;2023-07-20T13:49:27;99941.00;;;23.80
76898;BMP180;65856;52.178;21.176;2023-07-20T13:51:53;99941.80;;;23.90
76898;BMP180;65856;52.178;21.176;2023-07-20T13:54:19;99946.20;;;23.90
76898;BMP180;65856;52.178;21.176;2023-07-20T13:56:44;99946.00;;;23.90
76898;BMP180;65856;52.178;21.176;2023-07-20T13:59:10;99947.80;;;23.90
76898;BMP180;65856;52.178;21.176;2023-07-20T14:01:35;99954.20;;;23.88
76898;BMP180;65856;52.178;21.176;2023-07-20T14:04:02;99948.60;;;23.86
76898;BMP180;65856;52.178;21.176;2023-07-20T14:06:32;99954.80;;;23.90
76898;BMP180;65856;52.178;21.176;2023-07-20T14:08:59;99967.40;;;23.90
76898;BMP180;65856;52.178;21.176;2023-07-20T14:11:25;99969.20;;;23.86